sensor_id;sensor_type;location;lat;lon;timestamp;pressure;altitude;pressure_sealevel;temperature;humidity
58955;BME280;45815;52.334;5.024;2024-03-02T00:00:57;99747.56;;;8.42;100.00
58955;BME280;45815;52.334;5.024;2024-03-02T00:03:22;99737.13;;;8.42;100.00
58955;BME280;45815;52.334;5.024;2024-03-02T00:05:50;99740.66;;;8.46;100.00
58955;BME280;45815;52.334;5.024;2024-03-02T00:08:22;99764.97;;;8.40;100.00
58955;BME280;45815;52.334;5.024;2024-03-02T00:10:49;99761.56;;;8.43;100.00
58955;BME280;45815;52.334;5.024;2024-03-02T00:13:15;99778.91;;;8.39;100.00
58955;BME280;45815;52.334;5.024;2024-03-02T00:15:42;99818.94;;;8.35;100.00
58955;BME280;45815;52.334;5.024;2024-03-02T00:18:12;99833.72;;;8.33;100.00
58955;BME280;45815;52.334;5.024;2024-03-02T00:20:38;99837.13;;;8.26;100.00
58955;BME280;45815;52.334;5.024;2024-03-02T00:23:08;99846.66;;;8.19;100.00
58955;BME280;45815;52.334;5.024;2024-03-02T00:25:44;99847.28;;;8.01;100.00
58955;BME280;45815;52.334;5.024;2024-03-02T00:28:19;99853.25;;;7.93;100.00
58955;BME280;45815;52.334;5.024;2024-03-02T00:30:58;99851.31;;;7.79;100.00
58955;BME280;45815;52.334;5.024;2024-03-02T00:33:26;99849.28;;;7.60;100.00
58955;BME280;45815;52.334;5.024;2024-03-02T00:35:52;99856.09;;;7.49;100.00
58955;BME280;45815;52.334;5.024;2024-03-02T00:38:17;99849.88;;;7.42;100.00
58955;BME280;45815;52.334;5.024;2024-03-02T00:40:44;99855.91;;;7.36;100.00
58955;BME280;45815;52.334;5.024;2024-03-02T00:46:18;99850.38;;;7.16;100.00
58955;BME280;45815;52.334;5.024;2024-03-02T00:49:04;99859.06;;;7.17;100.00
58955;BME280;45815;52.334;5.024;2024-03-02T00:51:32;99868.53;;;7.10;100.00
58955;BME280;45815;52.334;5.024;2024-03-02T00:54:00;99875.41;;;7.07;100.00
58955;BME280;45815;52.334;5.024;2024-03-02T00:56:25;99873.53;;;6.98;100.00
58955;BME280;45815;52.334;5.024;2024-03-02T00:58:52;99880.41;;;6.94;100.00
58955;BME280;45815;52.334;5.024;2024-03-02T01:01:18;99876.84;;;6.89;100.00
58955;BME280;45815;52.334;5.024;2024-03-02T01:03:45;99883.75;;;6.87;100.00
58955;BME280;45815;52.334;5.024;2024-03-02T01:06:10;99884.63;;;6.86;100.00
58955;BME280;45815;52.334;5.024;2024-03-02T01:08:36;99874.06;;;6.80;100.00
58955;BME280;45815;52.334;5.024;2024-03-02T01:11:02;99880.22;;;6.85;100.00
58955;BME280;45815;52.334;5.024;2024-03-02T01:13:28;99883.66;;;6.83;100.00
58955;BME280;45815;52.334;5.024;2024-03-02T01:15:53;99880.88;;;6.72;100.00
58955;BME280;45815;52.334;5.024;2024-03-02T01:18:18;99875.59;;;6.69;100.00
58955;BME280;45815;52.334;5.024;2024-03-02T01:20:44;99876.25;;;6.59;100.00
58955;BME280;45815;52.334;5.024;2024-03-02T01:23:10;99893.84;;;6.69;100.00
58955;BME280;45815;52.334;5.024;2024-03-02T01:25:35;99890.34;;;6.68;100.00
58955;BME280;45815;52.334;5.024;2024-03-02T01:28:01;99877.19;;;6.61;100.00
58955;BME280;45815;52.334;5.024;2024-03-02T01:30:26;99870.91;;;6.52;100.00
58955;BME280;45815;52.334;5.024;2024-03-02T01:32:52;99889.34;;;6.62;100.00
58955;BME280;45815;52.334;5.024;2024-03-02T01:35:17;99890.31;;;6.65;100.00
58955;BME280;45815;52.334;5.024;2024-03-02T01:37:42;99891.91;;;6.60;100.00
58955;BME280;45815;52.334;5.024;2024-03-02T01:40:08;99878.88;;;6.59;100.00
58955;BME280;45815;52.334;5.024;2024-03-02T01:42:36;99884.03;;;6.55;100.00
58955;BME280;45815;52.334;5.024;2024-03-02T01:45:02;99877.09;;;6.58;100.00
58955;BME280;45815;52.334;5.024;2024-03-02T01:47:28;99878.00;;;6.60;100.00
58955;BME280;45815;52.334;5.024;2024-03-02T01:49:54;99862.34;;;6.58;100.00
58955;BME280;45815;52.334;5.024;2024-03-02T01:52:19;99875.34;;;6.57;100.00
58955;BME280;45815;52.334;5.024;2024-03-02T01:54:45;99891.88;;;6.57;100.00
58955;BME280;45815;52.334;5.024;2024-03-02T01:57:10;99902.34;;;6.59;100.00
58955;BME280;45815;52.334;5.024;2024-03-02T01:59:36;99913.63;;;6.59;100.00
58955;BME280;45815;52.334;5.024;2024-03-02T02:02:01;99916.16;;;6.54;100.00
58955;BME280;45815;52.334;5.024;2024-03-02T02:04:26;99908.28;;;6.51;100.00
58955;BME280;45815;52.334;5.024;2024-03-02T02:06:53;99903.13;;;6.54;100.00
58955;BME280;45815;52.334;5.024;2024-03-02T02:09:19;99904.81;;;6.52;100.00
58955;BME280;45815;52.334;5.024;2024-03-02T02:11:44;99904.81;;;6.52;100.00
58955;BME280;45815;52.334;5.024;2024-03-02T02:14:10;99925.66;;;6.52;100.00
58955;BME280;45815;52.334;5.024;2024-03-02T02:16:36;99908.19;;;6.48;100.00
58955;BME280;45815;52.334;5.024;2024-03-02T02:19:02;99907.41;;;6.51;100.00
58955;BME280;45815;52.334;5.024;2024-03-02T02:21:28;99919.63;;;6.53;100.00
58955;BME280;45815;52.334;5.024;2024-03-02T02:23:53;99898.69;;;6.50;100.00
58955;BME280;45815;52.334;5.024;2024-03-02T02:26:19;99909.19;;;6.53;100.00
58955;BME280;45815;52.334;5.024;2024-03-02T02:28:44;99919.53;;;6.50;100.00
58955;BME280;45815;52.334;5.024;2024-03-02T02:31:15;99909.09;;;6.49;100.00
58955;BME280;45815;52.334;5.024;2024-03-02T02:33:41;99908.13;;;6.45;100.00
58955;BME280;45815;52.334;5.024;2024-03-02T02:36:06;99902.06;;;6.45;100.00
58955;BME280;45815;52.334;5.024;2024-03-02T02:38:33;99903.69;;;6.40;100.00
58955;BME280;45815;52.334;5.024;2024-03-02T02:41:02;99902.88;;;6.44;100.00
58955;BME280;45815;52.334;5.024;2024-03-02T02:43:27;99906.31;;;6.40;100.00
58955;BME280;45815;52.334;5.024;2024-03-02T02:45:53;99914.84;;;6.34;100.00
58955;BME280;45815;52.334;5.024;2024-03-02T02:48:18;99905.38;;;6.38;100.00
58955;BME280;45815;52.334;5.024;2024-03-02T02:50:43;99907.13;;;6.39;100.00
58955;BME280;45815;52.334;5.024;2024-03-02T02:53:09;99908.03;;;6.39;100.00
58955;BME280;45815;52.334;5.024;2024-03-02T02:55:35;99911.50;;;6.40;100.00
58955;BME280;45815;52.334;5.024;2024-03-02T02:58:08;99928.91;;;6.41;100.00
58955;BME280;45815;52.334;5.024;2024-03-02T03:00:33;99928.84;;;6.38;100.00
58955;BME280;45815;52.334;5.024;2024-03-02T03:02:59;99918.38;;;6.36;100.00
58955;BME280;45815;52.334;5.024;2024-03-02T03:05:24;99921.91;;;6.38;100.00
58955;BME280;45815;52.334;5.024;2024-03-02T03:07:50;99924.50;;;6.38;100.00
58955;BME280;45815;52.334;5.024;2024-03-02T03:10:16;99918.38;;;6.36;100.00
58955;BME280;45815;52.334;5.024;2024-03-02T03:12:42;99918.47;;;6.39;100.00
58955;BME280;45815;52.334;5.024;2024-03-02T03:15:10;99907.03;;;6.34;100.00
58955;BME280;45815;52.334;5.024;2024-03-02T03:17:36;99910.63;;;6.39;100.00
58955;BME280;45815;52.334;5.024;2024-03-02T03:20:03;99916.69;;;6.38;100.00
58955;BME280;45815;52.334;5.024;2024-03-02T03:22:30;99916.72;;;6.41;100.00
58955;BME280;45815;52.334;5.024;2024-03-02T03:24:56;99914.94;;;6.37;100.00
58955;BME280;45815;52.334;5.024;2024-03-02T03:27:21;99913.25;;;6.39;100.00
58955;BME280;45815;52.334;5.024;2024-03-02T03:29:47;99916.72;;;6.41;100.00
58955;BME280;45815;52.334;5.024;2024-03-02T03:32:12;99918.41;;;6.38;100.00
58955;BME280;45815;52.334;5.024;2024-03-02T03:34:37;99924.53;;;6.40;100.00
58955;BME280;45815;52.334;5.024;2024-03-02T03:37:03;99919.34;;;6.41;100.00
58955;BME280;45815;52.334;5.024;2024-03-02T03:39:28;99921.06;;;6.41;100.00
58955;BME280;45815;52.334;5.024;2024-03-02T03:41:54;99927.16;;;6.40;100.00
58955;BME280;45815;52.334;5.024;2024-03-02T03:44:20;99915.75;;;6.34;100.00
58955;BME280;45815;52.334;5.024;2024-03-02T03:46:45;99925.38;;;6.39;100.00
58955;BME280;45815;52.334;5.024;2024-03-02T03:49:10;99930.56;;;6.37;100.00
58955;BME280;45815;52.334;5.024;2024-03-02T03:51:36;99935.78;;;6.37;100.00
58955;BME280;45815;52.334;5.024;2024-03-02T03:54:01;99938.41;;;6.37;100.00
58955;BME280;45815;52.334;5.024;2024-03-02T03:56:27;99935.78;;;6.37;100.00
58955;BME280;45815;52.334;5.024;2024-03-02T03:58:52;99945.34;;;6.38;100.00
58955;BME280;45815;52.334;5.024;2024-03-02T04:01:18;99941.81;;;6.34;100.00
58955;BME280;45815;52.334;5.024;2024-03-02T04:03:43;99942.75;;;6.38;100.00
58955;BME280;45815;52.334;5.024;2024-03-02T04:06:08;99948.84;;;6.39;100.00
58955;BME280;45815;52.334;5.024;2024-03-02T04:08:34;99941.00;;;6.37;100.00
58955;BME280;45815;52.334;5.024;2024-03-02T04:10:59;99946.22;;;6.37;100.00
58955;BME280;45815;52.334;5.024;2024-03-02T04:13:25;99951.44;;;6.37;100.00
58955;BME280;45815;52.334;5.024;2024-03-02T04:15:50;99942.75;;;6.38;100.00
58955;BME280;45815;52.334;5.024;2024-03-02T04:18:15;99944.34;;;6.31;100.00
58955;BME280;45815;52.334;5.024;2024-03-02T04:20:41;99950.63;;;6.40;100.00
58955;BME280;45815;52.334;5.024;2024-03-02T04:23:07;99952.34;;;6.41;100.00
58955;BME280;45815;52.334;5.024;2024-03-02T04:25:33;99953.28;;;6.43;100.00
58955;BME280;45815;52.334;5.024;2024-03-02T04:27:58;99946.28;;;6.40;100.00
58955;BME280;45815;52.334;5.024;2024-03-02T04:30:23;99948.91;;;6.42;100.00
58955;BME280;45815;52.334;5.024;2024-03-02T04:32:50;99952.41;;;6.42;100.00
58955;BME280;45815;52.334;5.024;2024-03-02T04:35:15;99949.78;;;6.42;100.00
58955;BME280;45815;52.334;5.024;2024-03-02T04:37:41;99956.75;;;6.43;100.00
58955;BME280;45815;52.334;5.024;2024-03-02T04:40:07;99962.88;;;6.45;100.00
58955;BME280;45815;52.334;5.024;2024-03-02T04:42:35;99953.31;;;6.44;100.00
58955;BME280;45815;52.334;5.024;2024-03-02T04:45:01;99955.88;;;6.43;100.00
58955;BME280;45815;52.334;5.024;2024-03-02T04:47:27;99944.38;;;6.33;100.00
58955;BME280;45815;52.334;5.024;2024-03-02T04:49:53;99960.19;;;6.41;100.00
58955;BME280;45815;52.334;5.024;2024-03-02T04:52:18;99964.47;;;6.39;100.00
58955;BME280;45815;52.334;5.024;2024-03-02T04:54:44;99958.34;;;6.37;100.00
58955;BME280;45815;52.334;5.024;2024-03-02T04:57:28;99976.56;;;6.35;100.00
58955;BME280;45815;52.334;5.024;2024-03-02T04:59:53;99973.09;;;6.34;100.00
58955;BME280;45815;52.334;5.024;2024-03-02T05:02:18;99981.75;;;6.33;100.00
58955;BME280;45815;52.334;5.024;2024-03-02T05:04:44;99973.81;;;6.29;100.00
58955;BME280;45815;52.334;5.024;2024-03-02T05:07:09;99965.78;;;6.20;100.00
58955;BME280;45815;52.334;5.024;2024-03-02T05:09:35;99973.72;;;6.24;100.00
58955;BME280;45815;52.334;5.024;2024-03-02T05:12:01;99976.22;;;6.20;100.00
58955;BME280;45815;52.334;5.024;2024-03-02T05:14:45;99988.31;;;6.18;100.00
58955;BME280;45815;52.334;5.024;2024-03-02T05:17:11;99983.09;;;6.16;100.00
58955;BME280;45815;52.334;5.024;2024-03-02T05:19:36;99967.22;;;6.05;100.00
58955;BME280;45815;52.334;5.024;2024-03-02T05:22:02;99978.53;;;6.07;100.00
58955;BME280;45815;52.334;5.024;2024-03-02T05:24:28;99989.88;;;6.09;100.00
58955;BME280;45815;52.334;5.024;2024-03-02T05:26:54;99996.84;;;6.09;100.00
58955;BME280;45815;52.334;5.024;2024-03-02T05:29:19;99984.41;;;5.99;100.00
58955;BME280;45815;52.334;5.024;2024-03-02T05:31:45;99999.31;;;6.04;100.00
58955;BME280;45815;52.334;5.024;2024-03-02T05:34:11;99995.81;;;6.02;100.00
58955;BME280;45815;52.334;5.024;2024-03-02T05:36:36;100000.13;;;6.02;100.00
58955;BME280;45815;52.334;5.024;2024-03-02T05:39:04;100011.34;;;5.99;100.00
58955;BME280;45815;52.334;5.024;2024-03-02T05:41:31;100009.53;;;5.97;100.00
58955;BME280;45815;52.334;5.024;2024-03-02T05:43:56;100011.19;;;5.93;100.00
58955;BME280;45815;52.334;5.024;2024-03-02T05:46:22;100016.22;;;5.87;100.00
58955;BME280;45815;52.334;5.024;2024-03-02T05:48:47;100018.88;;;5.88;100.00
58955;BME280;45815;52.334;5.024;2024-03-02T05:51:13;100022.28;;;5.86;100.00
58955;BME280;45815;52.334;5.024;2024-03-02T05:53:38;100015.34;;;5.86;100.00
58955;BME280;45815;52.334;5.024;2024-03-02T05:56:04;100015.31;;;5.85;100.00
58955;BME280;45815;52.334;5.024;2024-03-02T05:58:31;100015.06;;;5.76;100.00
58955;BME280;45815;52.334;5.024;2024-03-02T06:01:08;100023.97;;;5.84;100.00
58955;BME280;45815;52.334;5.024;2024-03-02T06:03:33;100028.31;;;5.83;100.00
58955;BME280;45815;52.334;5.024;2024-03-02T06:05:59;100023.03;;;5.82;100.00
58955;BME280;45815;52.334;5.024;2024-03-02T06:08:24;100024.72;;;5.80;100.00
58955;BME280;45815;52.334;5.024;2024-03-02T06:10:50;100029.94;;;5.80;100.00
58955;BME280;45815;52.334;5.024;2024-03-02T06:13:15;100025.59;;;5.79;100.00
58955;BME280;45815;52.334;5.024;2024-03-02T06:15:41;100015.94;;;5.75;100.00
58955;BME280;45815;52.334;5.024;2024-03-02T06:18:06;100005.28;;;5.65;100.00
58955;BME280;45815;52.334;5.024;2024-03-02T06:20:33;100027.22;;;5.75;100.00
58955;BME280;45815;52.334;5.024;2024-03-02T06:22:58;100032.34;;;5.72;100.00
58955;BME280;45815;52.334;5.024;2024-03-02T06:25:24;100027.19;;;5.74;100.00
58955;BME280;45815;52.334;5.024;2024-03-02T06:27:49;100033.28;;;5.76;100.00
58955;BME280;45815;52.334;5.024;2024-03-02T06:30:15;100040.28;;;5.77;100.00
58955;BME280;45815;52.334;5.024;2024-03-02T06:32:40;100030.50;;;5.68;100.00
58955;BME280;45815;52.334;5.024;2024-03-02T06:35:06;100042.91;;;5.78;100.00
58955;BME280;45815;52.334;5.024;2024-03-02T06:37:35;100041.22;;;5.80;100.00
58955;BME280;45815;52.334;5.024;2024-03-02T06:40:00;100048.22;;;5.83;100.00
58955;BME280;45815;52.334;5.024;2024-03-02T06:42:26;100050.00;;;5.84;100.00
58955;BME280;45815;52.334;5.024;2024-03-02T06:44:51;100052.69;;;5.87;100.00
58955;BME280;45815;52.334;5.024;2024-03-02T06:47:17;100058.00;;;5.90;100.00
58955;BME280;45815;52.334;5.024;2024-03-02T06:49:43;100056.31;;;5.93;100.00
58955;BME280;45815;52.334;5.024;2024-03-02T06:52:08;100068.63;;;5.98;100.00
58955;BME280;45815;52.334;5.024;2024-03-02T06:54:33;100062.59;;;6.00;100.00
58955;BME280;45815;52.334;5.024;2024-03-02T06:57:00;100060.06;;;6.03;100.00
58955;BME280;45815;52.334;5.024;2024-03-02T06:59:25;100050.56;;;6.05;100.00
58955;BME280;45815;52.334;5.024;2024-03-02T07:01:51;100047.81;;;5.99;100.00
58955;BME280;45815;52.334;5.024;2024-03-02T07:04:16;100054.97;;;6.06;100.00
58955;BME280;45815;52.334;5.024;2024-03-02T07:06:41;100051.56;;;6.10;100.00
58955;BME280;45815;52.334;5.024;2024-03-02T07:09:07;100050.72;;;6.11;100.00
58955;BME280;45815;52.334;5.024;2024-03-02T07:11:36;100053.41;;;6.15;100.00
58955;BME280;45815;52.334;5.024;2024-03-02T07:14:01;100034.03;;;6.03;100.00
58955;BME280;45815;52.334;5.024;2024-03-02T07:16:27;100062.06;;;6.13;100.00
58955;BME280;45815;52.334;5.024;2024-03-02T07:18:58;100062.09;;;6.15;100.00
58955;BME280;45815;52.334;5.024;2024-03-02T07:21:24;100048.94;;;6.10;100.00
58955;BME280;45815;52.334;5.024;2024-03-02T07:23:50;100070.00;;;6.18;100.00
58955;BME280;45815;52.334;5.024;2024-03-02T07:26:16;100052.63;;;6.19;100.00
58955;BME280;45815;52.334;5.024;2024-03-02T07:28:44;100056.28;;;6.25;100.00
58955;BME280;45815;52.334;5.024;2024-03-02T07:31:09;100069.38;;;6.28;100.00
58955;BME280;45815;52.334;5.024;2024-03-02T07:33:35;100069.38;;;6.28;100.00
58955;BME280;45815;52.334;5.024;2024-03-02T07:36:00;100065.94;;;6.31;100.00
58955;BME280;45815;52.334;5.024;2024-03-02T07:38:31;100079.91;;;6.33;100.00
58955;BME280;45815;52.334;5.024;2024-03-02T07:40:57;100079.19;;;6.40;100.00
58955;BME280;45815;52.334;5.024;2024-03-02T07:43:23;100078.34;;;6.41;100.00
58955;BME280;45815;52.334;5.024;2024-03-02T07:45:48;100086.22;;;6.43;100.00
58955;BME280;45815;52.334;5.024;2024-03-02T07:48:14;100077.56;;;6.45;100.00
58955;BME280;45815;52.334;5.024;2024-03-02T07:50:40;100083.72;;;6.47;100.00
58955;BME280;45815;52.334;5.024;2024-03-02T07:53:05;100094.13;;;6.47;100.00
58955;BME280;45815;52.334;5.024;2024-03-02T07:55:33;100090.78;;;6.51;100.00
58955;BME280;45815;52.334;5.024;2024-03-02T07:57:58;100079.25;;;6.42;100.00
58955;BME280;45815;52.334;5.024;2024-03-02T08:00:24;100098.66;;;6.54;100.00
58955;BME280;45815;52.334;5.024;2024-03-02T08:02:51;100090.63;;;6.45;100.00
58955;BME280;45815;52.334;5.024;2024-03-02T08:05:18;100097.72;;;6.52;100.00
58955;BME280;45815;52.334;5.024;2024-03-02T08:07:45;100097.81;;;6.55;100.00
58955;BME280;45815;52.334;5.024;2024-03-02T08:10:10;100104.78;;;6.57;100.00
58955;BME280;45815;52.334;5.024;2024-03-02T08:12:36;100094.47;;;6.61;100.00
58955;BME280;45815;52.334;5.024;2024-03-02T08:15:01;100092.78;;;6.65;100.00
58955;BME280;45815;52.334;5.024;2024-03-02T08:17:27;100089.41;;;6.69;100.00
58955;BME280;45815;52.334;5.024;2024-03-02T08:19:52;100090.44;;;6.75;100.00
58955;BME280;45815;52.334;5.024;2024-03-02T08:22:19;100097.44;;;6.78;100.00
58955;BME280;45815;52.334;5.024;2024-03-02T08:24:44;100091.50;;;6.85;100.00
58955;BME280;45815;52.334;5.024;2024-03-02T08:27:10;100109.06;;;6.92;100.00
58955;BME280;45815;52.334;5.024;2024-03-02T08:29:36;100097.91;;;6.98;100.00
58955;BME280;45815;52.334;5.024;2024-03-02T08:32:01;100100.59;;;7.03;100.00
58955;BME280;45815;52.334;5.024;2024-03-02T08:34:26;100094.63;;;7.08;100.00
58955;BME280;45815;52.334;5.024;2024-03-02T08:36:52;100098.28;;;7.16;100.00
58955;BME280;45815;52.334;5.024;2024-03-02T08:39:18;100074.94;;;7.24;100.00
58955;BME280;45815;52.334;5.024;2024-03-02T08:41:45;100084.69;;;7.33;100.00
58955;BME280;45815;52.334;5.024;2024-03-02T08:44:11;100075.00;;;7.27;100.00
58955;BME280;45815;52.334;5.024;2024-03-02T08:46:37;100088.38;;;7.43;100.00
58955;BME280;45815;52.334;5.024;2024-03-02T08:49:03;100091.16;;;7.52;100.00
58955;BME280;45815;52.334;5.024;2024-03-02T08:51:28;100089.56;;;7.60;100.00
58955;BME280;45815;52.334;5.024;2024-03-02T08:53:53;100067.97;;;7.69;100.00
58955;BME280;45815;52.334;5.024;2024-03-02T08:56:19;100074.22;;;7.78;100.00
58955;BME280;45815;52.334;5.024;2024-03-02T08:58:46;100075.28;;;7.88;100.00
58955;BME280;45815;52.334;5.024;2024-03-02T09:01:12;100074.56;;;7.97;100.00
58955;BME280;45815;52.334;5.024;2024-03-02T09:03:37;100062.44;;;8.02;100.00
58955;BME280;45815;52.334;5.024;2024-03-02T09:06:03;100074.00;;;8.16;100.00
58955;BME280;45815;52.334;5.024;2024-03-02T09:08:29;100060.97;;;8.18;100.00
58955;BME280;45815;52.334;5.024;2024-03-02T09:10:55;100076.94;;;8.38;100.00
58955;BME280;45815;52.334;5.024;2024-03-02T09:13:21;100071.06;;;8.48;100.00
58955;BME280;45815;52.334;5.024;2024-03-02T09:15:47;100080.91;;;8.64;100.00
58955;BME280;45815;52.334;5.024;2024-03-02T09:18:13;100095.13;;;8.83;100.00
58955;BME280;45815;52.334;5.024;2024-03-02T09:20:39;100080.31;;;8.87;100.00
58955;BME280;45815;52.334;5.024;2024-03-02T09:23:04;100092.09;;;9.20;100.00
58955;BME280;45815;52.334;5.024;2024-03-02T09:25:29;100096.66;;;9.35;100.00
58955;BME280;45815;52.334;5.024;2024-03-02T09:27:55;100096.81;;;9.48;100.00
58955;BME280;45815;52.334;5.024;2024-03-02T09:30:20;100101.25;;;9.56;100.00
58955;BME280;45815;52.334;5.024;2024-03-02T09:32:45;100099.59;;;9.64;100.00
58955;BME280;45815;52.334;5.024;2024-03-02T09:35:11;100094.53;;;9.79;100.00
58955;BME280;45815;52.334;5.024;2024-03-02T09:37:37;100109.56;;;9.99;100.00
58955;BME280;45815;52.334;5.024;2024-03-02T09:40:03;100106.19;;;10.12;100.00
58955;BME280;45815;52.334;5.024;2024-03-02T09:42:29;100103.63;;;10.20;100.00
58955;BME280;45815;52.334;5.024;2024-03-02T09:44:55;100102.91;;;10.33;100.00
58955;BME280;45815;52.334;5.024;2024-03-02T09:47:20;100102.06;;;10.39;100.00
58955;BME280;45815;52.334;5.024;2024-03-02T09:49:46;100083.72;;;10.40;100.00
58955;BME280;45815;52.334;5.024;2024-03-02T09:52:12;100087.25;;;10.45;100.00
58955;BME280;45815;52.334;5.024;2024-03-02T09:54:38;100095.19;;;10.53;100.00
58955;BME280;45815;52.334;5.024;2024-03-02T09:57:04;100100.44;;;10.54;100.00
58955;BME280;45815;52.334;5.024;2024-03-02T09:59:29;100101.34;;;10.58;100.00
58955;BME280;45815;52.334;5.024;2024-03-02T10:01:56;100100.47;;;10.56;100.00
58955;BME280;45815;52.334;5.024;2024-03-02T10:04:25;100095.28;;;10.64;100.00
58955;BME280;45815;52.334;5.024;2024-03-02T10:06:50;100088.22;;;10.58;100.00
58955;BME280;45815;52.334;5.024;2024-03-02T10:09:27;100074.25;;;10.61;100.00
58955;BME280;45815;52.334;5.024;2024-03-02T10:11:53;100079.56;;;10.74;100.00
58955;BME280;45815;52.334;5.024;2024-03-02T10:14:18;100097.16;;;10.91;100.00
58955;BME280;45815;52.334;5.024;2024-03-02T10:16:44;100087.50;;;10.82;100.00
58955;BME280;45815;52.334;5.024;2024-03-02T10:19:21;100088.44;;;10.89;100.00
58955;BME280;45815;52.334;5.024;2024-03-02T10:21:51;100090.19;;;10.93;100.00
58955;BME280;45815;52.334;5.024;2024-03-02T10:24:20;100093.69;;;10.95;100.00
58955;BME280;45815;52.334;5.024;2024-03-02T10:26:46;100104.22;;;10.99;100.00
58955;BME280;45815;52.334;5.024;2024-03-02T10:29:12;100095.53;;;11.11;100.00
58955;BME280;45815;52.334;5.024;2024-03-02T10:31:38;100085.91;;;11.10;100.00
58955;BME280;45815;52.334;5.024;2024-03-02T10:34:05;100086.81;;;11.18;100.00
58955;BME280;45815;52.334;5.024;2024-03-02T10:36:32;100079.81;;;11.20;100.00
58955;BME280;45815;52.334;5.024;2024-03-02T10:38:57;100082.44;;;11.24;100.00
58955;BME280;45815;52.334;5.024;2024-03-02T10:41:26;100083.34;;;11.27;100.00
58955;BME280;45815;52.334;5.024;2024-03-02T10:43:56;100083.31;;;11.23;100.00
58955;BME280;45815;52.334;5.024;2024-03-02T10:46:28;100078.13;;;11.35;100.00
58955;BME280;45815;52.334;5.024;2024-03-02T10:48:57;100073.78;;;11.49;100.00
58955;BME280;45815;52.334;5.024;2024-03-02T10:51:28;100055.41;;;11.55;100.00
58955;BME280;45815;52.334;5.024;2024-03-02T10:53:57;100062.47;;;11.78;100.00
58955;BME280;45815;52.334;5.024;2024-03-02T10:56:34;100063.41;;;11.88;100.00
58955;BME280;45815;52.334;5.024;2024-03-02T11:01:55;100059.03;;;12.03;100.00
58955;BME280;45815;52.334;5.024;2024-03-02T11:04:24;100060.78;;;12.18;100.00
58955;BME280;45815;52.334;5.024;2024-03-02T11:06:50;100064.28;;;12.19;100.00
58955;BME280;45815;52.334;5.024;2024-03-02T11:09:20;100080.06;;;12.33;100.00
58955;BME280;45815;52.334;5.024;2024-03-02T11:11:50;100069.53;;;12.37;100.00
58955;BME280;45815;52.334;5.024;2024-03-02T11:14:21;100062.53;;;12.39;100.00
58955;BME280;45815;52.334;5.024;2024-03-02T11:16:49;100066.00;;;12.48;100.00
58955;BME280;45815;52.334;5.024;2024-03-02T11:19:16;100064.25;;;12.59;100.00
58955;BME280;45815;52.334;5.024;2024-03-02T11:21:42;100058.97;;;12.59;100.00
58955;BME280;45815;52.334;5.024;2024-03-02T11:26:52;100049.28;;;12.79;100.00
58955;BME280;45815;52.334;5.024;2024-03-02T11:32:22;100057.09;;;13.04;100.00
58955;BME280;45815;52.334;5.024;2024-03-02T11:34:49;100053.66;;;12.93;100.00
58955;BME280;45815;52.334;5.024;2024-03-02T11:37:19;100037.72;;;13.17;100.00
58955;BME280;45815;52.334;5.024;2024-03-02T11:39:50;100046.47;;;13.33;100.00
58955;BME280;45815;52.334;5.024;2024-03-02T11:42:17;100055.97;;;13.62;100.00
58955;BME280;45815;52.334;5.024;2024-03-02T11:44:45;100058.50;;;13.80;100.00
58955;BME280;45815;52.334;5.024;2024-03-02T11:47:12;100057.44;;;14.06;100.00
58955;BME280;45815;52.334;5.024;2024-03-02T11:49:50;100055.53;;;14.23;100.00
58955;BME280;45815;52.334;5.024;2024-03-02T11:52:17;100052.84;;;14.28;100.00
58955;BME280;45815;52.334;5.024;2024-03-02T11:54:47;100049.22;;;14.41;100.00
58955;BME280;45815;52.334;5.024;2024-03-02T11:57:19;100049.13;;;14.50;100.00
58955;BME280;45815;52.334;5.024;2024-03-02T11:59:46;100035.66;;;14.78;100.00
58955;BME280;45815;52.334;5.024;2024-03-02T12:02:19;100042.38;;;15.07;100.00
58955;BME280;45815;52.334;5.024;2024-03-02T12:04:45;100037.09;;;15.08;100.00
58955;BME280;45815;52.334;5.024;2024-03-02T12:07:19;100039.38;;;15.34;100.00
58955;BME280;45815;52.334;5.024;2024-03-02T12:09:45;100029.22;;;15.67;100.00
58955;BME280;45815;52.334;5.024;2024-03-02T12:12:11;100027.78;;;16.03;100.00
58955;BME280;45815;52.334;5.024;2024-03-02T12:14:37;100024.13;;;16.11;100.00
58955;BME280;45815;52.334;5.024;2024-03-02T12:17:04;100018.13;;;16.52;100.00
58955;BME280;45815;52.334;5.024;2024-03-02T12:19:31;100016.03;;;16.70;100.00
58955;BME280;45815;52.334;5.024;2024-03-02T12:21:57;100019.19;;;16.90;100.00
58955;BME280;45815;52.334;5.024;2024-03-02T12:24:24;100005.47;;;17.13;100.00
58955;BME280;45815;52.334;5.024;2024-03-02T12:26:50;100007.50;;;17.42;100.00
58955;BME280;45815;52.334;5.024;2024-03-02T12:29:18;100002.00;;;17.50;100.00
58955;BME280;45815;52.334;5.024;2024-03-02T12:31:44;100000.72;;;17.68;100.00
58955;BME280;45815;52.334;5.024;2024-03-02T12:34:14;100001.13;;;17.88;100.00
58955;BME280;45815;52.334;5.024;2024-03-02T12:36:40;99996.94;;;18.14;100.00
58955;BME280;45815;52.334;5.024;2024-03-02T12:39:09;99989.75;;;18.19;98.52
58955;BME280;45815;52.334;5.024;2024-03-02T12:41:37;99985.94;;;18.29;100.00
58955;BME280;45815;52.334;5.024;2024-03-02T12:44:04;99982.81;;;18.46;99.72
58955;BME280;45815;52.334;5.024;2024-03-02T12:46:30;99983.19;;;18.65;96.14
58955;BME280;45815;52.334;5.024;2024-03-02T12:48:56;99969.97;;;18.95;92.75
58955;BME280;45815;52.334;5.024;2024-03-02T12:51:22;99981.97;;;18.79;89.01
58955;BME280;45815;52.334;5.024;2024-03-02T12:53:59;99974.88;;;18.45;82.09
58955;BME280;45815;52.334;5.024;2024-03-02T12:56:25;99966.78;;;18.49;88.04
58955;BME280;45815;52.334;5.024;2024-03-02T12:58:54;99958.56;;;18.59;88.55
58955;BME280;45815;52.334;5.024;2024-03-02T13:01:20;99968.28;;;18.60;89.14